sensor_id;sensor_type;location;lat;lon;timestamp;P1;durP1;ratioP1;P2;durP2;ratioP2
22606;SDS011;11470;20.968;105.834;2023-11-19T00:02:22;25.25;;;12.30;;
22606;SDS011;11470;20.968;105.834;2023-11-19T00:07:28;43.83;;;19.27;;
22606;SDS011;11470;20.968;105.834;2023-11-19T00:12:41;33.15;;;14.38;;
22606;SDS011;11470;20.968;105.834;2023-11-19T00:17:47;58.50;;;29.63;;
22606;SDS011;11470;20.968;105.834;2023-11-19T00:22:52;60.60;;;26.70;;
22606;SDS011;11470;20.968;105.834;2023-11-19T00:27:57;54.58;;;26.42;;
22606;SDS011;11470;20.968;105.834;2023-11-19T00:33:03;61.65;;;30.50;;
22606;SDS011;11470;20.968;105.834;2023-11-19T00:38:08;71.32;;;32.80;;
22606;SDS011;11470;20.968;105.834;2023-11-19T00:43:13;43.42;;;19.35;;
22606;SDS011;11470;20.968;105.834;2023-11-19T00:48:18;31.23;;;14.68;;
22606;SDS011;11470;20.968;105.834;2023-11-19T00:53:23;42.80;;;20.33;;
22606;SDS011;11470;20.968;105.834;2023-11-19T00:58:27;40.35;;;20.85;;
22606;SDS011;11470;20.968;105.834;2023-11-19T01:03:33;52.37;;;26.17;;
22606;SDS011;11470;20.968;105.834;2023-11-19T01:08:38;62.13;;;33.10;;
22606;SDS011;11470;20.968;105.834;2023-11-19T01:13:43;47.13;;;24.40;;
22606;SDS011;11470;20.968;105.834;2023-11-19T01:18:49;39.17;;;19.35;;
22606;SDS011;11470;20.968;105.834;2023-11-19T01:24:01;49.22;;;27.15;;
22606;SDS011;11470;20.968;105.834;2023-11-19T01:29:07;53.85;;;26.25;;
22606;SDS011;11470;20.968;105.834;2023-11-19T01:34:12;61.40;;;30.83;;
22606;SDS011;11470;20.968;105.834;2023-11-19T01:39:17;63.35;;;34.35;;
22606;SDS011;11470;20.968;105.834;2023-11-19T01:44:23;51.25;;;29.27;;
22606;SDS011;11470;20.968;105.834;2023-11-19T01:49:28;60.85;;;31.05;;
22606;SDS011;11470;20.968;105.834;2023-11-19T01:54:34;40.53;;;16.40;;
22606;SDS011;11470;20.968;105.834;2023-11-19T01:59:40;41.25;;;23.00;;
22606;SDS011;11470;20.968;105.834;2023-11-19T02:04:46;55.40;;;32.43;;
22606;SDS011;11470;20.968;105.834;2023-11-19T02:09:55;41.50;;;21.67;;
22606;SDS011;11470;20.968;105.834;2023-11-19T02:15:03;51.08;;;27.55;;
22606;SDS011;11470;20.968;105.834;2023-11-19T02:20:08;46.22;;;24.55;;
22606;SDS011;11470;20.968;105.834;2023-11-19T02:25:25;57.67;;;34.35;;
22606;SDS011;11470;20.968;105.834;2023-11-19T02:30:37;52.65;;;27.77;;
22606;SDS011;11470;20.968;105.834;2023-11-19T02:35:42;61.00;;;36.40;;
22606;SDS011;11470;20.968;105.834;2023-11-19T02:40:47;51.67;;;26.70;;
22606;SDS011;11470;20.968;105.834;2023-11-19T02:45:52;53.70;;;29.70;;
22606;SDS011;11470;20.968;105.834;2023-11-19T02:50:59;45.15;;;26.85;;
22606;SDS011;11470;20.968;105.834;2023-11-19T02:56:10;37.38;;;19.67;;
22606;SDS011;11470;20.968;105.834;2023-11-19T03:01:45;47.95;;;28.30;;
22606;SDS011;11470;20.968;105.834;2023-11-19T03:06:53;55.30;;;28.38;;
22606;SDS011;11470;20.968;105.834;2023-11-19T03:11:59;46.75;;;25.70;;
22606;SDS011;11470;20.968;105.834;2023-11-19T03:17:03;37.97;;;18.98;;
22606;SDS011;11470;20.968;105.834;2023-11-19T03:22:09;40.97;;;21.83;;
22606;SDS011;11470;20.968;105.834;2023-11-19T03:27:14;45.97;;;25.58;;
22606;SDS011;11470;20.968;105.834;2023-11-19T03:32:19;38.58;;;22.90;;
22606;SDS011;11470;20.968;105.834;2023-11-19T03:37:24;36.60;;;16.33;;
22606;SDS011;11470;20.968;105.834;2023-11-19T03:42:30;47.55;;;25.05;;
22606;SDS011;11470;20.968;105.834;2023-11-19T03:47:35;47.22;;;23.63;;
22606;SDS011;11470;20.968;105.834;2023-11-19T03:52:40;38.37;;;22.20;;
22606;SDS011;11470;20.968;105.834;2023-11-19T03:57:46;38.70;;;23.63;;
22606;SDS011;11470;20.968;105.834;2023-11-19T04:02:52;32.95;;;19.65;;
22606;SDS011;11470;20.968;105.834;2023-11-19T04:07:57;38.83;;;24.13;;
22606;SDS011;11470;20.968;105.834;2023-11-19T04:13:03;33.30;;;19.27;;
22606;SDS011;11470;20.968;105.834;2023-11-19T04:18:08;37.45;;;19.25;;
22606;SDS011;11470;20.968;105.834;2023-11-19T04:23:13;32.33;;;18.97;;
22606;SDS011;11470;20.968;105.834;2023-11-19T04:28:19;34.63;;;17.33;;
22606;SDS011;11470;20.968;105.834;2023-11-19T04:33:24;37.67;;;19.23;;
22606;SDS011;11470;20.968;105.834;2023-11-19T04:38:29;32.42;;;15.25;;
22606;SDS011;11470;20.968;105.834;2023-11-19T04:43:35;29.83;;;18.20;;
22606;SDS011;11470;20.968;105.834;2023-11-19T04:48:40;32.05;;;19.08;;
22606;SDS011;11470;20.968;105.834;2023-11-19T04:53:45;24.23;;;14.00;;
22606;SDS011;11470;20.968;105.834;2023-11-19T04:58:50;21.52;;;10.68;;
22606;SDS011;11470;20.968;105.834;2023-11-19T05:03:56;32.70;;;17.90;;
22606;SDS011;11470;20.968;105.834;2023-11-19T05:09:04;37.03;;;19.25;;
22606;SDS011;11470;20.968;105.834;2023-11-19T05:14:11;25.88;;;11.48;;
22606;SDS011;11470;20.968;105.834;2023-11-19T05:19:16;24.48;;;12.20;;
22606;SDS011;11470;20.968;105.834;2023-11-19T05:24:21;24.75;;;15.05;;
22606;SDS011;11470;20.968;105.834;2023-11-19T05:29:26;25.90;;;13.57;;
22606;SDS011;11470;20.968;105.834;2023-11-19T05:34:45;19.42;;;10.90;;
22606;SDS011;11470;20.968;105.834;2023-11-19T05:39:53;27.48;;;15.45;;
22606;SDS011;11470;20.968;105.834;2023-11-19T05:44:58;20.63;;;10.45;;
22606;SDS011;11470;20.968;105.834;2023-11-19T05:50:03;26.30;;;14.38;;
22606;SDS011;11470;20.968;105.834;2023-11-19T05:55:09;20.52;;;11.18;;
22606;SDS011;11470;20.968;105.834;2023-11-19T06:00:15;19.87;;;11.33;;
22606;SDS011;11470;20.968;105.834;2023-11-19T06:05:21;21.33;;;11.05;;
22606;SDS011;11470;20.968;105.834;2023-11-19T06:10:27;18.27;;;7.95;;
22606;SDS011;11470;20.968;105.834;2023-11-19T06:15:35;19.17;;;11.07;;
22606;SDS011;11470;20.968;105.834;2023-11-19T06:20:41;17.40;;;9.23;;
22606;SDS011;11470;20.968;105.834;2023-11-19T06:25:46;18.90;;;9.13;;
22606;SDS011;11470;20.968;105.834;2023-11-19T06:30:51;18.30;;;9.25;;
22606;SDS011;11470;20.968;105.834;2023-11-19T06:35:56;24.27;;;13.47;;
22606;SDS011;11470;20.968;105.834;2023-11-19T06:41:05;17.38;;;10.57;;
22606;SDS011;11470;20.968;105.834;2023-11-19T06:46:18;22.65;;;10.38;;
22606;SDS011;11470;20.968;105.834;2023-11-19T06:51:24;12.30;;;7.47;;
22606;SDS011;11470;20.968;105.834;2023-11-19T06:56:29;15.40;;;8.47;;
22606;SDS011;11470;20.968;105.834;2023-11-19T07:01:35;17.35;;;8.40;;
22606;SDS011;11470;20.968;105.834;2023-11-19T07:06:41;17.77;;;8.00;;
22606;SDS011;11470;20.968;105.834;2023-11-19T07:11:46;13.53;;;8.03;;
22606;SDS011;11470;20.968;105.834;2023-11-19T07:16:51;13.10;;;7.60;;
22606;SDS011;11470;20.968;105.834;2023-11-19T07:21:57;15.10;;;7.13;;
22606;SDS011;11470;20.968;105.834;2023-11-19T07:27:02;15.98;;;8.10;;
22606;SDS011;11470;20.968;105.834;2023-11-19T07:32:08;15.07;;;7.50;;
22606;SDS011;11470;20.968;105.834;2023-11-19T07:37:13;19.20;;;9.73;;
22606;SDS011;11470;20.968;105.834;2023-11-19T07:42:17;16.10;;;8.90;;
22606;SDS011;11470;20.968;105.834;2023-11-19T07:47:22;15.03;;;7.83;;
22606;SDS011;11470;20.968;105.834;2023-11-19T07:52:27;20.67;;;9.23;;
22606;SDS011;11470;20.968;105.834;2023-11-19T07:57:32;17.15;;;9.02;;
22606;SDS011;11470;20.968;105.834;2023-11-19T08:02:38;14.93;;;8.87;;
22606;SDS011;11470;20.968;105.834;2023-11-19T08:07:46;15.15;;;8.13;;
22606;SDS011;11470;20.968;105.834;2023-11-19T08:12:51;15.32;;;9.65;;
22606;SDS011;11470;20.968;105.834;2023-11-19T08:17:56;17.25;;;8.93;;
22606;SDS011;11470;20.968;105.834;2023-11-19T08:23:05;20.83;;;10.30;;
22606;SDS011;11470;20.968;105.834;2023-11-19T08:28:10;18.25;;;9.48;;
22606;SDS011;11470;20.968;105.834;2023-11-19T08:33:15;20.10;;;10.25;;
22606;SDS011;11470;20.968;105.834;2023-11-19T08:38:24;20.80;;;10.45;;
22606;SDS011;11470;20.968;105.834;2023-11-19T08:43:33;19.45;;;10.60;;
22606;SDS011;11470;20.968;105.834;2023-11-19T08:48:38;28.00;;;12.63;;
22606;SDS011;11470;20.968;105.834;2023-11-19T08:53:46;23.80;;;12.52;;
22606;SDS011;11470;20.968;105.834;2023-11-19T08:58:51;19.95;;;11.23;;
22606;SDS011;11470;20.968;105.834;2023-11-19T09:03:56;20.30;;;12.53;;
22606;SDS011;11470;20.968;105.834;2023-11-19T09:09:02;25.63;;;12.73;;
22606;SDS011;11470;20.968;105.834;2023-11-19T09:14:10;16.50;;;10.95;;
22606;SDS011;11470;20.968;105.834;2023-11-19T09:19:15;33.53;;;16.73;;
22606;SDS011;11470;20.968;105.834;2023-11-19T09:24:20;28.67;;;14.30;;
22606;SDS011;11470;20.968;105.834;2023-11-19T09:29:26;25.93;;;15.77;;
22606;SDS011;11470;20.968;105.834;2023-11-19T09:34:31;29.52;;;14.18;;
22606;SDS011;11470;20.968;105.834;2023-11-19T09:39:35;34.67;;;17.08;;
22606;SDS011;11470;20.968;105.834;2023-11-19T09:44:40;36.58;;;17.52;;
22606;SDS011;11470;20.968;105.834;2023-11-19T09:49:48;31.88;;;15.15;;
22606;SDS011;11470;20.968;105.834;2023-11-19T09:54:57;29.05;;;16.75;;
22606;SDS011;11470;20.968;105.834;2023-11-19T10:00:01;24.90;;;14.15;;
22606;SDS011;11470;20.968;105.834;2023-11-19T10:05:08;29.50;;;16.27;;
22606;SDS011;11470;20.968;105.834;2023-11-19T10:10:17;24.87;;;15.03;;
22606;SDS011;11470;20.968;105.834;2023-11-19T10:15:24;33.45;;;16.17;;
22606;SDS011;11470;20.968;105.834;2023-11-19T10:20:35;33.88;;;18.05;;
22606;SDS011;11470;20.968;105.834;2023-11-19T10:25:40;32.92;;;17.20;;
22606;SDS011;11470;20.968;105.834;2023-11-19T10:30:48;41.95;;;19.15;;
22606;SDS011;11470;20.968;105.834;2023-11-19T10:35:57;33.38;;;17.13;;
22606;SDS011;11470;20.968;105.834;2023-11-19T10:41:04;41.25;;;20.90;;
22606;SDS011;11470;20.968;105.834;2023-11-19T10:46:10;29.27;;;16.53;;
22606;SDS011;11470;20.968;105.834;2023-11-19T10:51:20;34.92;;;19.55;;
22606;SDS011;11470;20.968;105.834;2023-11-19T10:56:26;43.45;;;21.30;;
22606;SDS011;11470;20.968;105.834;2023-11-19T11:01:45;36.25;;;19.23;;
22606;SDS011;11470;20.968;105.834;2023-11-19T11:06:53;41.17;;;22.35;;
22606;SDS011;11470;20.968;105.834;2023-11-19T11:12:02;43.60;;;23.58;;
22606;SDS011;11470;20.968;105.834;2023-11-19T11:17:09;36.97;;;19.65;;
22606;SDS011;11470;20.968;105.834;2023-11-19T11:22:18;37.95;;;21.85;;
22606;SDS011;11470;20.968;105.834;2023-11-19T11:27:37;45.80;;;25.02;;
22606;SDS011;11470;20.968;105.834;2023-11-19T11:38:27;66.78;;;35.97;;
22606;SDS011;11470;20.968;105.834;2023-11-19T11:48:52;57.67;;;30.00;;
22606;SDS011;11470;20.968;105.834;2023-11-19T11:53:58;59.78;;;31.00;;
22606;SDS011;11470;20.968;105.834;2023-11-19T11:59:07;55.13;;;29.80;;
22606;SDS011;11470;20.968;105.834;2023-11-19T12:04:22;52.85;;;29.02;;
22606;SDS011;11470;20.968;105.834;2023-11-19T12:09:31;50.55;;;28.83;;
22606;SDS011;11470;20.968;105.834;2023-11-19T12:25:15;69.70;;;34.00;;
22606;SDS011;11470;20.968;105.834;2023-11-19T12:30:23;65.32;;;37.47;;
22606;SDS011;11470;20.968;105.834;2023-11-19T12:35:29;72.00;;;38.95;;
22606;SDS011;11470;20.968;105.834;2023-11-19T12:40:34;73.38;;;41.45;;
22606;SDS011;11470;20.968;105.834;2023-11-19T12:45:39;75.07;;;41.72;;
22606;SDS011;11470;20.968;105.834;2023-11-19T12:56:08;81.65;;;45.30;;
22606;SDS011;11470;20.968;105.834;2023-11-19T13:01:21;87.10;;;51.03;;
22606;SDS011;11470;20.968;105.834;2023-11-19T13:06:29;91.20;;;49.75;;
22606;SDS011;11470;20.968;105.834;2023-11-19T13:11:35;76.60;;;46.17;;
22606;SDS011;11470;20.968;105.834;2023-11-19T13:16:41;86.28;;;49.67;;
22606;SDS011;11470;20.968;105.834;2023-11-19T13:21:52;85.68;;;47.35;;
22606;SDS011;11470;20.968;105.834;2023-11-19T13:26:57;101.73;;;60.50;;
22606;SDS011;11470;20.968;105.834;2023-11-19T13:32:02;118.97;;;67.47;;
22606;SDS011;11470;20.968;105.834;2023-11-19T13:37:07;120.47;;;70.67;;
22606;SDS011;11470;20.968;105.834;2023-11-19T13:42:12;138.68;;;73.63;;
22606;SDS011;11470;20.968;105.834;2023-11-19T13:47:17;112.60;;;63.45;;
22606;SDS011;11470;20.968;105.834;2023-11-19T13:52:22;110.53;;;60.85;;
22606;SDS011;11470;20.968;105.834;2023-11-19T13:57:29;117.90;;;62.57;;
22606;SDS011;11470;20.968;105.834;2023-11-19T14:02:35;126.82;;;62.90;;
22606;SDS011;11470;20.968;105.834;2023-11-19T14:07:40;96.40;;;53.45;;
22606;SDS011;11470;20.968;105.834;2023-11-19T14:12:46;116.63;;;64.30;;
22606;SDS011;11470;20.968;105.834;2023-11-19T14:17:51;104.73;;;58.90;;
22606;SDS011;11470;20.968;105.834;2023-11-19T14:22:56;107.38;;;57.55;;
22606;SDS011;11470;20.968;105.834;2023-11-19T14:28:01;112.72;;;55.22;;
22606;SDS011;11470;20.968;105.834;2023-11-19T14:33:08;116.35;;;57.08;;
22606;SDS011;11470;20.968;105.834;2023-11-19T14:38:14;113.78;;;63.55;;
22606;SDS011;11470;20.968;105.834;2023-11-19T14:43:19;108.15;;;58.40;;
22606;SDS011;11470;20.968;105.834;2023-11-19T14:48:23;100.97;;;53.28;;
22606;SDS011;11470;20.968;105.834;2023-11-19T14:53:28;103.85;;;55.10;;
22606;SDS011;11470;20.968;105.834;2023-11-19T14:58:33;104.10;;;54.83;;
22606;SDS011;11470;20.968;105.834;2023-11-19T15:03:38;112.70;;;62.80;;
22606;SDS011;11470;20.968;105.834;2023-11-19T15:08:46;101.43;;;57.67;;
22606;SDS011;11470;20.968;105.834;2023-11-19T15:13:50;120.30;;;65.03;;
22606;SDS011;11470;20.968;105.834;2023-11-19T15:18:56;106.55;;;60.22;;
22606;SDS011;11470;20.968;105.834;2023-11-19T15:24:07;106.68;;;58.58;;
22606;SDS011;11470;20.968;105.834;2023-11-19T15:29:12;112.50;;;56.57;;
22606;SDS011;11470;20.968;105.834;2023-11-19T15:34:18;103.03;;;53.77;;
22606;SDS011;11470;20.968;105.834;2023-11-19T15:39:23;97.13;;;50.17;;
22606;SDS011;11470;20.968;105.834;2023-11-19T15:44:30;110.85;;;59.83;;
22606;SDS011;11470;20.968;105.834;2023-11-19T15:49:34;101.30;;;53.47;;
22606;SDS011;11470;20.968;105.834;2023-11-19T15:54:40;106.80;;;62.93;;
22606;SDS011;11470;20.968;105.834;2023-11-19T15:59:45;109.18;;;62.25;;
22606;SDS011;11470;20.968;105.834;2023-11-19T16:04:51;105.72;;;55.75;;
22606;SDS011;11470;20.968;105.834;2023-11-19T16:09:56;102.25;;;57.95;;
22606;SDS011;11470;20.968;105.834;2023-11-19T16:15:01;111.65;;;59.35;;
22606;SDS011;11470;20.968;105.834;2023-11-19T16:20:07;103.43;;;58.83;;
22606;SDS011;11470;20.968;105.834;2023-11-19T16:25:14;96.60;;;55.80;;
22606;SDS011;11470;20.968;105.834;2023-11-19T16:30:20;111.03;;;58.20;;
22606;SDS011;11470;20.968;105.834;2023-11-19T16:35:26;94.22;;;52.42;;
22606;SDS011;11470;20.968;105.834;2023-11-19T16:40:31;98.63;;;49.27;;
22606;SDS011;11470;20.968;105.834;2023-11-19T16:45:42;90.97;;;47.53;;
22606;SDS011;11470;20.968;105.834;2023-11-19T16:50:47;94.38;;;47.30;;
22606;SDS011;11470;20.968;105.834;2023-11-19T16:55:56;85.50;;;44.47;;
22606;SDS011;11470;20.968;105.834;2023-11-19T17:01:01;86.43;;;46.42;;
22606;SDS011;11470;20.968;105.834;2023-11-19T17:06:07;81.73;;;42.80;;
22606;SDS011;11470;20.968;105.834;2023-11-19T17:11:13;83.03;;;43.10;;
22606;SDS011;11470;20.968;105.834;2023-11-19T17:16:17;80.47;;;43.22;;
22606;SDS011;11470;20.968;105.834;2023-11-19T17:21:23;71.37;;;37.40;;
22606;SDS011;11470;20.968;105.834;2023-11-19T17:26:28;77.13;;;39.67;;
22606;SDS011;11470;20.968;105.834;2023-11-19T17:31:36;75.07;;;35.38;;
22606;SDS011;11470;20.968;105.834;2023-11-19T17:36:41;69.85;;;33.47;;
22606;SDS011;11470;20.968;105.834;2023-11-19T17:41:46;57.03;;;31.73;;
22606;SDS011;11470;20.968;105.834;2023-11-19T17:46:51;64.50;;;31.13;;
22606;SDS011;11470;20.968;105.834;2023-11-19T17:51:56;60.47;;;28.98;;
22606;SDS011;11470;20.968;105.834;2023-11-19T18:02:08;61.75;;;26.60;;
22606;SDS011;11470;20.968;105.834;2023-11-19T18:07:13;58.83;;;29.08;;
22606;SDS011;11470;20.968;105.834;2023-11-19T18:12:19;56.55;;;26.35;;
22606;SDS011;11470;20.968;105.834;2023-11-19T18:17:25;55.63;;;29.25;;
22606;SDS011;11470;20.968;105.834;2023-11-19T18:22:30;54.33;;;28.63;;
22606;SDS011;11470;20.968;105.834;2023-11-19T18:27:36;57.15;;;29.58;;
22606;SDS011;11470;20.968;105.834;2023-11-19T18:32:45;57.65;;;30.42;;
22606;SDS011;11470;20.968;105.834;2023-11-19T18:37:51;63.67;;;34.67;;
22606;SDS011;11470;20.968;105.834;2023-11-19T18:42:55;67.93;;;34.17;;
22606;SDS011;11470;20.968;105.834;2023-11-19T18:48:00;67.88;;;35.60;;
22606;SDS011;11470;20.968;105.834;2023-11-19T18:53:06;70.82;;;33.55;;
22606;SDS011;11470;20.968;105.834;2023-11-19T18:58:11;75.33;;;37.07;;
22606;SDS011;11470;20.968;105.834;2023-11-19T19:03:16;78.68;;;39.13;;
22606;SDS011;11470;20.968;105.834;2023-11-19T19:08:25;75.32;;;39.58;;
22606;SDS011;11470;20.968;105.834;2023-11-19T19:13:30;77.47;;;41.00;;
22606;SDS011;11470;20.968;105.834;2023-11-19T19:18:35;82.33;;;41.27;;
22606;SDS011;11470;20.968;105.834;2023-11-19T19:23:41;72.47;;;39.23;;
22606;SDS011;11470;20.968;105.834;2023-11-19T19:28:46;83.65;;;42.67;;
22606;SDS011;11470;20.968;105.834;2023-11-19T19:33:53;80.15;;;41.03;;
22606;SDS011;11470;20.968;105.834;2023-11-19T19:39:01;74.95;;;38.78;;
22606;SDS011;11470;20.968;105.834;2023-11-19T19:44:17;62.53;;;33.63;;
22606;SDS011;11470;20.968;105.834;2023-11-19T19:49:23;74.07;;;38.67;;
22606;SDS011;11470;20.968;105.834;2023-11-19T19:54:29;67.95;;;36.20;;
22606;SDS011;11470;20.968;105.834;2023-11-19T19:59:37;72.00;;;38.40;;
22606;SDS011;11470;20.968;105.834;2023-11-19T20:04:43;83.35;;;42.30;;
22606;SDS011;11470;20.968;105.834;2023-11-19T20:09:51;69.40;;;38.05;;
22606;SDS011;11470;20.968;105.834;2023-11-19T20:14:56;75.32;;;38.97;;
22606;SDS011;11470;20.968;105.834;2023-11-19T20:20:04;84.75;;;45.38;;
22606;SDS011;11470;20.968;105.834;2023-11-19T20:25:10;100.40;;;50.22;;
22606;SDS011;11470;20.968;105.834;2023-11-19T20:30:17;93.32;;;50.00;;
22606;SDS011;11470;20.968;105.834;2023-11-19T20:35:23;86.82;;;46.67;;
22606;SDS011;11470;20.968;105.834;2023-11-19T20:40:28;96.43;;;50.75;;
22606;SDS011;11470;20.968;105.834;2023-11-19T20:45:32;94.70;;;50.92;;
22606;SDS011;11470;20.968;105.834;2023-11-19T20:50:38;98.43;;;54.20;;
22606;SDS011;11470;20.968;105.834;2023-11-19T20:55:44;102.50;;;51.77;;
22606;SDS011;11470;20.968;105.834;2023-11-19T21:00:49;105.82;;;53.40;;
22606;SDS011;11470;20.968;105.834;2023-11-19T21:05:54;113.33;;;58.90;;
22606;SDS011;11470;20.968;105.834;2023-11-19T21:10:59;122.90;;;67.50;;
22606;SDS011;11470;20.968;105.834;2023-11-19T21:21:10;135.68;;;77.78;;
22606;SDS011;11470;20.968;105.834;2023-11-19T21:26:15;147.98;;;80.20;;
22606;SDS011;11470;20.968;105.834;2023-11-19T21:31:20;139.32;;;76.82;;
22606;SDS011;11470;20.968;105.834;2023-11-19T21:36:26;126.28;;;75.03;;
22606;SDS011;11470;20.968;105.834;2023-11-19T21:41:31;127.78;;;75.47;;
22606;SDS011;11470;20.968;105.834;2023-11-19T21:46:36;135.45;;;80.20;;
22606;SDS011;11470;20.968;105.834;2023-11-19T21:51:41;141.65;;;78.68;;
22606;SDS011;11470;20.968;105.834;2023-11-19T21:56:47;137.68;;;79.70;;
22606;SDS011;11470;20.968;105.834;2023-11-19T22:01:52;138.37;;;77.80;;
22606;SDS011;11470;20.968;105.834;2023-11-19T22:06:58;143.00;;;84.47;;
22606;SDS011;11470;20.968;105.834;2023-11-19T22:12:03;131.20;;;78.32;;
22606;SDS011;11470;20.968;105.834;2023-11-19T22:17:09;128.82;;;78.13;;
22606;SDS011;11470;20.968;105.834;2023-11-19T22:22:13;135.00;;;80.78;;
22606;SDS011;11470;20.968;105.834;2023-11-19T22:27:18;133.00;;;77.38;;
22606;SDS011;11470;20.968;105.834;2023-11-19T22:32:23;127.35;;;73.68;;
22606;SDS011;11470;20.968;105.834;2023-11-19T22:37:32;126.50;;;74.70;;
22606;SDS011;11470;20.968;105.834;2023-11-19T22:42:37;121.85;;;70.93;;
22606;SDS011;11470;20.968;105.834;2023-11-19T22:47:42;132.50;;;78.55;;
22606;SDS011;11470;20.968;105.834;2023-11-19T22:52:47;129.60;;;78.10;;
22606;SDS011;11470;20.968;105.834;2023-11-19T22:57:52;127.40;;;76.28;;
22606;SDS011;11470;20.968;105.834;2023-11-19T23:03:00;131.10;;;73.68;;
22606;SDS011;11470;20.968;105.834;2023-11-19T23:08:08;122.93;;;73.22;;
22606;SDS011;11470;20.968;105.834;2023-11-19T23:13:16;140.90;;;78.40;;
22606;SDS011;11470;20.968;105.834;2023-11-19T23:23:26;125.05;;;66.85;;
22606;SDS011;11470;20.968;105.834;2023-11-19T23:28:31;128.13;;;70.70;;
22606;SDS011;11470;20.968;105.834;2023-11-19T23:33:36;132.48;;;77.35;;
22606;SDS011;11470;20.968;105.834;2023-11-19T23:38:45;146.13;;;81.50;;
22606;SDS011;11470;20.968;105.834;2023-11-19T23:43:52;139.68;;;81.15;;
22606;SDS011;11470;20.968;105.834;2023-11-19T23:48:57;145.02;;;81.05;;
22606;SDS011;11470;20.968;105.834;2023-11-19T23:54:03;129.70;;;72.47;;
22606;SDS011;11470;20.968;105.834;2023-11-19T23:59:08;158.60;;;84.23;;
